createdAt,value
2022-10-04T00:00:29.829Z,8.95
2022-10-04T00:03:43.734Z,8.93
2022-10-04T00:06:21.246Z,8.88
2022-10-04T00:09:01.109Z,8.90
2022-10-04T00:11:43.684Z,8.88
2022-10-04T00:14:29.142Z,8.89
2022-10-04T00:16:58.079Z,8.89
2022-10-04T00:19:49.477Z,8.88
2022-10-04T00:22:23.687Z,8.89
2022-10-04T00:25:09.995Z,8.84
2022-10-04T00:27:38.812Z,8.86
2022-10-04T00:30:05.637Z,8.90
2022-10-04T00:32:41.459Z,8.90
2022-10-04T00:35:28.798Z,8.88
2022-10-04T00:38:08.311Z,8.87
2022-10-04T00:40:49.422Z,8.89
2022-10-04T00:43:39.608Z,8.86
2022-10-04T00:46:18.765Z,8.84
2022-10-04T00:48:45.633Z,8.83
2022-10-04T00:51:15.509Z,8.84
2022-10-04T00:53:57.841Z,8.84
2022-10-04T00:56:52.480Z,8.87
2022-10-04T00:59:37.224Z,8.89
2022-10-04T01:02:13.346Z,8.90
2022-10-04T01:04:45.914Z,8.92
2022-10-04T01:07:17.687Z,8.93
2022-10-04T01:09:53.448Z,8.92
2022-10-04T01:12:37.554Z,8.92
2022-10-04T01:15:36.948Z,8.90
2022-10-04T01:18:15.416Z,8.91
2022-10-04T01:21:07.801Z,8.91
2022-10-04T01:24:08.023Z,8.92
2022-10-04T01:26:45.127Z,8.93
2022-10-04T01:29:17.595Z,8.93
2022-10-04T01:31:46.191Z,8.93
2022-10-04T01:34:16.541Z,8.91
2022-10-04T01:36:47.372Z,8.98
2022-10-04T01:39:16.800Z,8.95
2022-10-04T01:41:58.404Z,8.99
2022-10-04T01:44:37.263Z,9.04
2022-10-04T01:47:14.224Z,9.05
2022-10-04T01:49:44.197Z,9.08
2022-10-04T01:52:19.887Z,9.11
2022-10-04T01:54:52.815Z,9.12
2022-10-04T01:57:24.067Z,9.10
2022-10-04T01:59:51.054Z,9.07
2022-10-04T02:02:21.509Z,9.00
2022-10-04T02:04:54.049Z,8.99
2022-10-04T02:07:22.683Z,8.94
2022-10-04T02:09:56.256Z,8.95
2022-10-04T02:12:23.906Z,8.96
2022-10-04T02:14:53.327Z,8.93
2022-10-04T02:17:29.878Z,8.91
2022-10-04T02:19:57.935Z,8.90
2022-10-04T02:22:26.376Z,8.93
2022-10-04T02:24:56.530Z,8.92
2022-10-04T02:27:31.342Z,8.92
2022-10-04T02:30:04.803Z,8.92
2022-10-04T02:32:51.996Z,8.95
2022-10-04T02:35:20.175Z,8.90
2022-10-04T02:37:59.166Z,8.95
2022-10-04T02:40:32.157Z,8.97
2022-10-04T02:43:02.128Z,8.99
2022-10-04T02:45:45.223Z,8.97
2022-10-04T02:48:28.924Z,9.02
2022-10-04T02:51:00.960Z,9.02
2022-10-04T02:53:46.575Z,9.06
2022-10-04T02:56:13.849Z,9.06
2022-10-04T02:58:42.559Z,9.05
2022-10-04T03:01:17.968Z,9.06
2022-10-04T03:03:47.541Z,9.02
2022-10-04T03:06:20.161Z,9.03
2022-10-04T03:08:58.181Z,9.01
2022-10-04T03:11:30.992Z,8.99
2022-10-04T03:14:01.164Z,9.00
2022-10-04T03:16:35.797Z,8.99
2022-10-04T03:19:03.804Z,9.01
2022-10-04T03:21:32.188Z,8.99
2022-10-04T03:24:01.150Z,8.99
2022-10-04T03:26:42.454Z,8.95
2022-10-04T03:29:12.473Z,8.97
2022-10-04T03:31:50.917Z,8.97
2022-10-04T03:34:27.738Z,9.00
2022-10-04T03:36:58.813Z,9.05
2022-10-04T03:39:40.483Z,9.05
2022-10-04T03:42:20.386Z,9.03
2022-10-04T03:44:50.369Z,9.05
2022-10-04T03:47:37.397Z,9.06
2022-10-04T03:50:34.286Z,9.08
2022-10-04T03:53:06.413Z,9.10
2022-10-04T03:55:44.300Z,9.11
2022-10-04T03:58:14.348Z,9.11
2022-10-04T04:00:47.641Z,9.15
2022-10-04T04:03:20.479Z,9.18
2022-10-04T04:05:51.120Z,9.19
2022-10-04T04:08:29.924Z,9.22
2022-10-04T04:10:59.494Z,9.23
2022-10-04T04:13:35.360Z,9.22
2022-10-04T04:16:03.000Z,9.24
2022-10-04T04:18:34.876Z,9.30
2022-10-04T04:21:04.849Z,9.24
2022-10-04T04:23:50.401Z,9.26
2022-10-04T04:26:41.015Z,9.23
2022-10-04T04:29:11.206Z,9.25
2022-10-04T04:31:42.454Z,9.22
2022-10-04T04:34:21.248Z,9.20
2022-10-04T04:36:48.103Z,9.19
2022-10-04T04:39:39.926Z,9.17
2022-10-04T04:42:15.052Z,9.15
2022-10-04T04:45:00.844Z,9.10
2022-10-04T04:47:50.492Z,9.11
2022-10-04T04:50:19.383Z,9.13
2022-10-04T04:52:51.488Z,9.14
2022-10-04T04:55:21.099Z,9.19
2022-10-04T04:57:49.065Z,9.19
2022-10-04T05:00:23.655Z,9.21
2022-10-04T05:02:58.315Z,9.21
2022-10-04T05:05:32.858Z,9.16
2022-10-04T05:08:29.699Z,9.14
2022-10-04T05:11:16.128Z,9.10
2022-10-04T05:13:50.085Z,9.11
2022-10-04T05:16:24.730Z,9.11
2022-10-04T05:19:01.978Z,9.16
2022-10-04T05:21:31.584Z,9.24
2022-10-04T05:24:09.835Z,9.40
2022-10-04T05:26:36.634Z,9.80
2022-10-04T05:29:16.420Z,9.96
2022-10-04T05:32:03.542Z,10.09
2022-10-04T05:34:40.272Z,10.16
2022-10-04T05:37:14.558Z,10.33
2022-10-04T05:40:23.710Z,10.89
2022-10-04T05:42:52.318Z,11.42
2022-10-04T05:45:29.737Z,11.52
2022-10-04T05:48:00.014Z,11.40
2022-10-04T05:50:35.426Z,11.08
2022-10-04T05:53:14.838Z,10.87
2022-10-04T05:56:20.615Z,10.97
2022-10-04T05:58:53.824Z,11.79
2022-10-04T06:01:35.943Z,12.16
2022-10-04T06:04:09.520Z,12.03
2022-10-04T06:06:45.790Z,11.85
2022-10-04T06:09:37.099Z,11.52
2022-10-04T06:12:13.585Z,11.26
2022-10-04T06:14:40.404Z,11.20
2022-10-04T06:17:42.185Z,11.20
2022-10-04T06:20:43.082Z,11.27
2022-10-04T06:23:18.646Z,11.17
2022-10-04T06:26:01.092Z,11.09
2022-10-04T06:28:47.974Z,11.02
2022-10-04T06:31:37.367Z,10.78
2022-10-04T06:34:23.157Z,10.74
2022-10-04T06:37:00.104Z,10.64
2022-10-04T06:39:59.893Z,10.63
2022-10-04T06:42:26.678Z,10.58
2022-10-04T06:45:05.205Z,10.59
2022-10-04T06:48:03.205Z,10.54
2022-10-04T06:50:53.074Z,10.58
2022-10-04T06:53:25.801Z,10.65
2022-10-04T06:56:21.442Z,10.69
2022-10-04T06:58:53.925Z,10.73
2022-10-04T07:01:29.521Z,10.74
2022-10-04T07:04:20.472Z,10.72
2022-10-04T07:06:49.858Z,10.76
2022-10-04T07:09:23.163Z,10.78
2022-10-04T07:11:57.814Z,10.86
2022-10-04T07:14:32.132Z,10.95
2022-10-04T07:17:05.239Z,11.02
2022-10-04T07:19:40.891Z,11.13
2022-10-04T07:22:08.289Z,11.24
2022-10-04T07:24:51.106Z,11.26
2022-10-04T07:27:34.216Z,11.24
2022-10-04T07:30:16.501Z,11.20
2022-10-04T07:32:45.881Z,11.10
2022-10-04T07:35:16.830Z,11.02
2022-10-04T07:38:05.669Z,11.05
2022-10-04T07:40:50.221Z,11.02
2022-10-04T07:43:29.457Z,11.01
2022-10-04T07:46:17.515Z,11.14
2022-10-04T07:48:44.730Z,11.11
2022-10-04T07:51:35.768Z,11.13
2022-10-04T07:54:13.226Z,11.18
2022-10-04T07:56:51.619Z,11.39
2022-10-04T07:59:39.979Z,11.70
2022-10-04T08:02:27.707Z,11.99
2022-10-04T08:05:25.178Z,12.26
2022-10-04T08:08:14.313Z,12.51
2022-10-04T08:10:59.752Z,12.51
2022-10-04T08:13:52.334Z,12.39
2022-10-04T08:16:31.150Z,12.26
2022-10-04T08:19:07.063Z,12.34
2022-10-04T08:22:04.402Z,12.57
2022-10-04T08:25:03.075Z,12.77
2022-10-04T08:28:15.135Z,12.63
2022-10-04T08:31:09.358Z,12.43
2022-10-04T08:33:42.332Z,12.35
2022-10-04T08:36:24.341Z,12.35
2022-10-04T08:38:57.690Z,12.48
2022-10-04T08:41:46.193Z,12.60
2022-10-04T08:44:38.863Z,12.69
2022-10-04T08:47:21.845Z,12.76
2022-10-04T08:50:01.144Z,12.94
2022-10-04T08:52:57.243Z,13.11
2022-10-04T08:55:35.210Z,13.04
2022-10-04T08:58:33.350Z,13.03
2022-10-04T09:01:26.017Z,13.04
2022-10-04T09:04:22.849Z,12.99
2022-10-04T09:07:12.701Z,12.81
2022-10-04T09:10:01.553Z,12.72
2022-10-04T09:13:10.962Z,12.54
2022-10-04T09:15:49.922Z,12.71
2022-10-04T09:18:30.752Z,13.16
2022-10-04T09:21:01.292Z,13.58
2022-10-04T09:23:31.140Z,13.83
2022-10-04T09:26:22.716Z,13.98
2022-10-04T09:29:08.036Z,14.23
2022-10-04T09:32:18.245Z,14.49
2022-10-04T09:34:57.961Z,14.52
2022-10-04T09:37:36.354Z,14.53
2022-10-04T09:40:22.047Z,14.57
2022-10-04T09:43:07.569Z,14.82
2022-10-04T09:45:58.129Z,14.83
2022-10-04T09:49:05.203Z,14.68
2022-10-04T09:51:41.053Z,14.44
2022-10-04T09:54:44.547Z,14.10
2022-10-04T09:57:29.112Z,13.93
2022-10-04T09:59:57.181Z,13.89
2022-10-04T10:02:42.781Z,13.80
2022-10-04T10:05:37.474Z,13.85
2022-10-04T10:08:28.261Z,13.89
2022-10-04T10:11:31.914Z,14.02
2022-10-04T10:14:27.051Z,14.11
2022-10-04T10:17:15.355Z,14.05
2022-10-04T10:20:10.079Z,13.87
2022-10-04T10:22:58.601Z,13.73
2022-10-04T10:25:56.257Z,13.67
2022-10-04T10:28:29.272Z,13.70
2022-10-04T10:31:16.473Z,13.62
2022-10-04T10:34:11.443Z,13.55
2022-10-04T10:37:02.271Z,13.49
2022-10-04T10:39:47.897Z,13.47
2022-10-04T10:42:31.141Z,13.51
2022-10-04T10:45:45.823Z,13.48
2022-10-04T10:48:18.965Z,13.57
2022-10-04T10:51:23.558Z,13.63
2022-10-04T10:54:08.979Z,13.71
2022-10-04T10:56:39.071Z,13.79
2022-10-04T10:59:33.788Z,13.95
2022-10-04T11:02:48.784Z,14.24
2022-10-04T11:05:35.130Z,14.61
2022-10-04T11:08:34.845Z,14.82
2022-10-04T11:11:23.449Z,14.89
2022-10-04T11:14:23.937Z,14.93
2022-10-04T11:17:21.007Z,15.45
2022-10-04T11:20:06.656Z,15.76
2022-10-04T11:22:51.488Z,15.78
2022-10-04T11:25:36.956Z,15.77
2022-10-04T11:28:09.798Z,15.78
2022-10-04T11:30:52.718Z,15.65
2022-10-04T11:33:55.845Z,15.33
2022-10-04T11:36:51.988Z,15.30
2022-10-04T11:39:35.796Z,15.31
2022-10-04T11:42:37.175Z,15.32
2022-10-04T11:45:33.484Z,15.40
2022-10-04T11:48:11.410Z,15.34
2022-10-04T11:50:45.065Z,14.92
2022-10-04T11:53:30.807Z,14.74
2022-10-04T11:56:08.395Z,14.52
2022-10-04T11:58:45.035Z,14.41
2022-10-04T12:01:14.283Z,14.62
2022-10-04T12:03:59.923Z,14.76
2022-10-04T12:06:58.210Z,14.80
2022-10-04T12:09:44.112Z,14.84
2022-10-04T12:12:38.117Z,14.72
2022-10-04T12:15:36.203Z,14.58
2022-10-04T12:18:28.625Z,14.50
2022-10-04T12:21:16.713Z,14.40
2022-10-04T12:23:56.586Z,14.34
2022-10-04T12:26:32.375Z,14.07
2022-10-04T12:29:22.223Z,13.89
2022-10-04T12:32:16.954Z,13.68
2022-10-04T12:34:55.962Z,13.38
2022-10-04T12:37:42.926Z,13.25
2022-10-04T12:40:09.670Z,13.18
2022-10-04T12:42:45.634Z,12.94
2022-10-04T12:45:34.155Z,12.43
2022-10-04T12:48:42.495Z,12.12
2022-10-04T12:51:28.855Z,12.08
2022-10-04T12:54:10.748Z,12.60
2022-10-04T12:56:55.711Z,13.41
2022-10-04T12:59:28.708Z,13.91
2022-10-04T13:02:07.672Z,14.31
2022-10-04T13:04:39.706Z,14.43
2022-10-04T13:07:37.151Z,15.05
2022-10-04T13:10:30.688Z,15.28
2022-10-04T13:13:26.549Z,15.33
2022-10-04T13:19:12.889Z,14.45
2022-10-04T13:21:43.412Z,14.13
2022-10-04T13:24:21.569Z,13.97
2022-10-04T13:27:14.198Z,13.73
2022-10-04T13:29:58.021Z,13.59
2022-10-04T13:32:48.191Z,13.42
2022-10-04T13:35:36.541Z,13.21
2022-10-04T13:38:28.067Z,13.07
2022-10-04T13:41:19.678Z,12.90
2022-10-04T13:43:55.972Z,12.85
2022-10-04T13:46:43.857Z,12.92
2022-10-04T13:49:46.551Z,12.90
2022-10-04T13:53:22.757Z,12.77
2022-10-04T13:56:33.264Z,12.76
2022-10-04T13:59:19.201Z,12.78
2022-10-04T14:02:10.186Z,12.56
2022-10-04T14:04:58.515Z,12.51
2022-10-04T14:07:56.144Z,12.42
2022-10-04T14:10:41.434Z,12.43
2022-10-04T14:13:29.627Z,12.41
2022-10-04T14:16:08.321Z,12.43
2022-10-04T14:18:41.252Z,12.39
2022-10-04T14:21:19.123Z,12.44
2022-10-04T14:24:21.836Z,12.44
2022-10-04T14:27:03.640Z,12.58
2022-10-04T14:29:48.677Z,12.66
2022-10-04T14:32:43.422Z,12.76
2022-10-04T14:35:17.621Z,12.79
2022-10-04T14:38:15.011Z,12.77
2022-10-04T14:40:51.256Z,12.76
2022-10-04T14:43:55.081Z,12.69
2022-10-04T14:46:46.505Z,12.66
2022-10-04T14:49:41.880Z,12.65
2022-10-04T14:52:48.342Z,12.56
2022-10-04T14:55:45.911Z,12.52
2022-10-04T14:58:53.282Z,12.40
2022-10-04T15:01:24.220Z,12.27
2022-10-04T15:04:11.402Z,12.25
2022-10-04T15:06:49.386Z,12.07
2022-10-04T15:09:31.642Z,11.96
2022-10-04T15:13:05.790Z,11.80
2022-10-04T15:15:40.733Z,11.62
2022-10-04T15:18:34.061Z,11.53
2022-10-04T15:21:39.705Z,11.48
2022-10-04T15:24:18.449Z,11.40
2022-10-04T15:26:55.788Z,11.37
2022-10-04T15:29:31.791Z,11.29
2022-10-04T15:32:35.602Z,11.20
2022-10-04T15:35:22.152Z,11.12
2022-10-04T15:37:49.274Z,11.05
2022-10-04T15:40:45.393Z,10.99
2022-10-04T15:43:41.811Z,10.93
2022-10-04T15:46:26.246Z,10.93
2022-10-04T15:49:04.087Z,10.93
2022-10-04T15:51:49.948Z,10.91
2022-10-04T15:55:14.654Z,10.92
2022-10-04T15:57:50.157Z,10.89
2022-10-04T16:00:20.196Z,10.92
2022-10-04T16:03:10.802Z,10.85
2022-10-04T16:06:00.118Z,10.86
2022-10-04T16:08:35.053Z,10.87
2022-10-04T16:11:26.218Z,10.87
2022-10-04T16:13:58.440Z,10.87
2022-10-04T16:16:46.848Z,10.86
2022-10-04T16:19:30.192Z,10.84
2022-10-04T16:22:17.570Z,10.77
2022-10-04T16:24:58.167Z,10.78
2022-10-04T16:28:05.736Z,10.74
2022-10-04T16:31:10.598Z,10.70
2022-10-04T16:33:44.195Z,10.64
2022-10-04T16:36:23.970Z,10.63
2022-10-04T16:39:18.664Z,10.56
2022-10-04T16:41:57.922Z,10.50
2022-10-04T16:44:48.037Z,10.37
2022-10-04T16:47:30.829Z,10.31
2022-10-04T16:50:00.726Z,10.27
2022-10-04T16:52:48.515Z,10.17
2022-10-04T16:56:07.398Z,10.13
2022-10-04T16:58:38.670Z,10.10
2022-10-04T17:01:23.645Z,10.05
2022-10-04T17:04:02.448Z,10.06
2022-10-04T17:07:24.389Z,10.05
2022-10-04T17:10:02.760Z,10.03
2022-10-04T17:12:45.579Z,9.95
2022-10-04T17:15:31.367Z,9.91
2022-10-04T17:18:26.297Z,9.84
2022-10-04T17:21:16.747Z,9.77
2022-10-04T17:24:11.369Z,9.71
2022-10-04T17:26:50.993Z,9.69
2022-10-04T17:29:28.130Z,9.68
2022-10-04T17:32:17.017Z,9.63
2022-10-04T17:34:57.452Z,9.65
2022-10-04T17:37:48.113Z,9.64
2022-10-04T17:40:17.955Z,9.66
2022-10-04T17:43:09.641Z,9.67
2022-10-04T17:46:07.572Z,9.63
2022-10-04T17:49:07.385Z,9.63
2022-10-04T17:52:14.692Z,9.59
2022-10-04T17:55:08.733Z,9.58
2022-10-04T17:57:35.708Z,9.61
2022-10-04T18:00:16.148Z,9.62
2022-10-04T18:03:02.305Z,9.66
2022-10-04T18:05:41.380Z,9.70
2022-10-04T18:08:29.431Z,9.69
2022-10-04T18:11:13.968Z,9.68
2022-10-04T18:13:51.577Z,9.73
2022-10-04T18:16:22.590Z,9.72
2022-10-04T18:18:50.959Z,9.72
2022-10-04T18:21:29.163Z,9.69
2022-10-04T18:24:01.249Z,9.68
2022-10-04T18:26:34.542Z,9.66
2022-10-04T18:29:02.877Z,9.61
2022-10-04T18:31:32.686Z,9.59
2022-10-04T18:34:27.809Z,9.55
2022-10-04T18:37:31.756Z,9.50
2022-10-04T18:40:25.157Z,9.43
2022-10-04T18:42:57.820Z,9.39
2022-10-04T18:45:28.538Z,9.36
2022-10-04T18:47:57.508Z,9.32
2022-10-04T18:50:43.681Z,9.26
2022-10-04T18:53:44.444Z,9.24
2022-10-04T18:56:13.148Z,9.24
2022-10-04T18:59:13.483Z,9.19
2022-10-04T19:01:58.903Z,9.13
2022-10-04T19:04:45.743Z,9.03
2022-10-04T19:07:21.611Z,8.98
2022-10-04T19:10:03.034Z,8.90
2022-10-04T19:12:35.699Z,8.80
2022-10-04T19:15:25.075Z,8.73
2022-10-04T19:18:30.071Z,8.62
2022-10-04T19:21:38.837Z,8.52
2022-10-04T19:24:42.602Z,8.44
2022-10-04T19:27:31.867Z,8.38
2022-10-04T19:30:15.439Z,8.32
2022-10-04T19:33:00.780Z,8.27
2022-10-04T19:35:30.565Z,8.27
2022-10-04T19:38:20.817Z,8.22
2022-10-04T19:40:54.129Z,8.21
2022-10-04T19:44:05.665Z,8.19
2022-10-04T19:46:43.651Z,8.17
2022-10-04T19:49:26.613Z,8.12
2022-10-04T19:52:01.071Z,8.10
2022-10-04T19:54:35.126Z,8.09
2022-10-04T19:57:05.490Z,8.05
2022-10-04T19:59:40.776Z,8.02
2022-10-04T20:02:11.802Z,8.00
2022-10-04T20:04:39.391Z,7.91
2022-10-04T20:07:23.846Z,7.91
2022-10-04T20:09:52.780Z,7.95
2022-10-04T20:12:36.525Z,7.89
2022-10-04T20:15:14.852Z,7.85
2022-10-04T20:17:45.998Z,7.83
2022-10-04T20:20:38.570Z,7.85
2022-10-04T20:23:10.166Z,7.86
2022-10-04T20:25:43.369Z,7.82
2022-10-04T20:28:26.282Z,7.81
2022-10-04T20:30:55.584Z,7.77
2022-10-04T20:33:34.487Z,7.74
2022-10-04T20:36:14.213Z,7.72
2022-10-04T20:38:48.325Z,7.65
2022-10-04T20:42:06.175Z,7.62
2022-10-04T20:44:55.877Z,7.63
2022-10-04T20:47:27.931Z,7.68
2022-10-04T20:49:57.826Z,7.69
2022-10-04T20:52:34.926Z,7.67
2022-10-04T20:55:02.998Z,7.69
2022-10-04T20:57:30.548Z,7.72
2022-10-04T20:59:59.453Z,7.72
2022-10-04T21:02:28.288Z,7.70
2022-10-04T21:05:12.236Z,7.71
2022-10-04T21:07:39.038Z,7.68
2022-10-04T21:10:15.292Z,7.70
2022-10-04T21:12:42.071Z,7.70
2022-10-04T21:15:18.753Z,7.67
2022-10-04T21:18:06.515Z,7.66
2022-10-04T21:20:50.179Z,7.65
2022-10-04T21:23:21.117Z,7.65
2022-10-04T21:25:48.182Z,7.66
2022-10-04T21:28:27.599Z,7.63
2022-10-04T21:30:54.669Z,7.60
2022-10-04T21:33:21.787Z,7.63
2022-10-04T21:35:52.520Z,7.60
2022-10-04T21:38:19.884Z,7.57
2022-10-04T21:40:46.683Z,7.55
2022-10-04T21:43:13.436Z,7.50
2022-10-04T21:45:40.438Z,7.42
2022-10-04T21:48:07.295Z,7.37
2022-10-04T21:50:34.128Z,7.31
2022-10-04T21:53:01.130Z,7.22
2022-10-04T21:55:27.922Z,7.12
2022-10-04T21:57:54.650Z,7.04
2022-10-04T22:00:21.698Z,6.99
2022-10-04T22:02:48.787Z,6.91
2022-10-04T22:05:16.038Z,6.89
2022-10-04T22:07:44.088Z,6.79
2022-10-04T22:10:10.979Z,6.78
2022-10-04T22:12:37.780Z,6.78
2022-10-04T22:15:06.446Z,6.74
2022-10-04T22:17:33.348Z,6.71
2022-10-04T22:20:00.318Z,6.66
2022-10-04T22:22:29.986Z,6.61
2022-10-04T22:24:57.897Z,6.58
2022-10-04T22:27:27.314Z,6.56
2022-10-04T22:29:57.342Z,6.53
2022-10-04T22:32:27.028Z,6.47
2022-10-04T22:35:13.531Z,6.44
2022-10-04T22:37:40.891Z,6.44
2022-10-04T22:40:15.235Z,6.44
2022-10-04T22:42:42.891Z,6.44
2022-10-04T22:45:20.434Z,6.44
2022-10-04T22:47:47.570Z,6.42
2022-10-04T22:50:37.700Z,6.38
2022-10-04T22:53:20.916Z,6.38
2022-10-04T22:55:49.354Z,6.37
2022-10-04T22:58:17.170Z,6.38
2022-10-04T23:00:45.159Z,6.39
2022-10-04T23:03:27.884Z,6.37
2022-10-04T23:05:54.926Z,6.44
2022-10-04T23:08:21.931Z,6.44
2022-10-04T23:10:48.771Z,6.40
2022-10-04T23:13:15.559Z,6.40
2022-10-04T23:15:42.942Z,6.45
2022-10-04T23:18:17.925Z,6.44
2022-10-04T23:20:51.110Z,6.48
2022-10-04T23:23:21.466Z,6.55
2022-10-04T23:25:48.992Z,6.60
2022-10-04T23:28:19.177Z,6.59
2022-10-04T23:30:56.313Z,6.52
2022-10-04T23:33:23.999Z,6.47
2022-10-04T23:35:51.461Z,6.42
2022-10-04T23:38:20.393Z,6.38
2022-10-04T23:40:47.491Z,6.33
2022-10-04T23:43:21.649Z,6.30
2022-10-04T23:45:49.042Z,6.24
2022-10-04T23:48:24.207Z,6.19
2022-10-04T23:50:53.007Z,6.14
2022-10-04T23:53:26.548Z,6.12
2022-10-04T23:55:55.787Z,6.12
2022-10-04T23:58:26.001Z,6.17
